Time;durP1;ratioP1;P1;durP2;ratioP2;P2;SDS_P1;SDS_P2;PMS_P1;PMS_P2;Temp;Humidity;BMP_temperature;BMP_pressure;BME280_temperature;BME280_humidity;BME280_pressure;Samples;Min_cycle;Max_cycle;Signal;HPM_P1;HPM_P2
2021/12/15 00:01:45;;;;;;;1.60;0.70;;;8.70;99.90;;;;;;4808124;29;20059;-86
2021/12/15 00:04:13;;;;;;;1.48;0.90;;;8.70;99.90;;;;;;4808002;29;20090;-87
2021/12/15 00:06:41;;;;;;;3.00;1.10;;;8.70;99.90;;;;;;4808106;29;20055;-87
2021/12/15 00:09:11;;;;;;;2.55;1.05;;;8.70;99.90;;;;;;4807837;29;20055;-86
2021/12/15 00:11:38;;;;;;;2.97;1.00;;;8.70;99.90;;;;;;4807845;29;20047;-87
2021/12/15 00:14:09;;;;;;;2.50;1.10;;;8.70;99.90;;;;;;4807678;29;20054;-87
2021/12/15 00:16:37;;;;;;;1.83;0.93;;;8.70;99.90;;;;;;4806482;29;20054;-86
2021/12/15 00:19:04;;;;;;;1.85;1.17;;;7.10;99.90;;;;;;4790054;30;20063;-87
2021/12/15 00:21:32;;;;;;;3.10;1.45;;;8.60;99.90;;;;;;4789937;30;20121;-86
2021/12/15 00:23:59;;;;;;;4.20;1.27;;;8.60;99.90;;;;;;4789356;30;20051;-86
2021/12/15 00:26:26;;;;;;;3.95;1.27;;;8.60;99.90;;;;;;4789472;30;20556;-86
2021/12/15 00:28:53;;;;;;;2.30;1.10;;;8.50;99.90;;;;;;4789288;30;20071;-86
2021/12/15 00:31:22;;;;;;;3.75;1.20;;;8.50;99.90;;;;;;4789762;30;20105;-87
2021/12/15 00:33:50;;;;;;;2.50;1.10;;;8.50;99.90;;;;;;4789583;30;20083;-87
2021/12/15 00:36:17;;;;;;;3.53;1.77;;;8.40;99.90;;;;;;4789286;30;20051;-87
2021/12/15 00:38:44;;;;;;;2.83;1.55;;;8.50;99.90;;;;;;4789493;30;20503;-87
2021/12/15 00:41:11;;;;;;;4.13;1.38;;;8.40;99.90;;;;;;4791065;30;20135;-86
2021/12/15 00:43:39;;;;;;;4.22;1.85;;;8.40;99.90;;;;;;4791172;30;20457;-87
2021/12/15 00:46:06;;;;;;;3.60;1.27;;;8.40;99.90;;;;;;4791013;30;20052;-87
2021/12/15 00:48:35;;;;;;;4.65;1.60;;;8.60;99.90;;;;;;4789678;30;20070;-87
2021/12/15 00:51:02;;;;;;;4.22;1.52;;;8.70;99.90;;;;;;4789387;30;20059;-86
2021/12/15 00:53:30;;;;;;;3.22;1.40;;;8.70;99.90;;;;;;4789416;30;20465;-86
2021/12/15 00:55:57;;;;;;;5.25;1.60;;;8.70;99.90;;;;;;4789175;30;20117;-86
2021/12/15 00:58:25;;;;;;;2.35;1.17;;;9.10;99.90;;;;;;4789360;29;20067;-86
2021/12/15 01:00:55;;;;;;;5.95;1.20;;;8.50;99.90;;;;;;4789115;30;20059;-86
2021/12/15 01:03:23;;;;;;;3.03;1.25;;;8.50;99.90;;;;;;4789468;30;20494;-87
2021/12/15 01:05:55;;;;;;;3.03;1.30;;;8.40;99.90;;;;;;4788871;30;20081;-87
2021/12/15 01:08:25;;;;;;;3.08;1.10;;;8.40;99.90;;;;;;4788859;30;20072;-86
2021/12/15 01:11:04;;;;;;;3.00;1.00;;;8.40;99.90;;;;;;4789177;30;20051;-86
2021/12/15 01:21:51;;;;;;;3.28;1.45;;;8.40;99.90;;;;;;4788780;30;20062;-86
2021/12/15 01:24:18;;;;;;;1.67;0.65;;;8.50;99.90;;;;;;4788641;30;20055;-86
2021/12/15 01:26:45;;;;;;;4.32;1.30;;;8.50;99.90;;;;;;4788777;30;20103;-87
2021/12/15 01:29:12;;;;;;;3.80;1.08;;;8.50;99.90;;;;;;4788431;30;20169;-86
2021/12/15 01:31:40;;;;;;;3.22;1.08;;;8.60;99.90;;;;;;4788868;30;20470;-86
2021/12/15 01:34:07;;;;;;;5.53;1.13;;;8.60;99.90;;;;;;4788769;30;20055;-86
2021/12/15 01:36:34;;;;;;;3.83;0.77;;;8.60;99.90;;;;;;4788524;30;20059;-87
2021/12/15 01:39:03;;;;;;;2.25;0.73;;;8.60;99.90;;;;;;4788388;30;20055;-87
2021/12/15 01:41:30;;;;;;;;;;;8.70;99.90;;;;;;4788874;30;20056;-87
2021/12/15 01:46:59;;;;;;;1.42;0.55;;;8.80;99.90;;;;;;4788269;30;20070;-87
2021/12/15 01:49:36;;;;;;;0.90;0.50;;;8.70;99.90;;;;;;4787839;30;20055;-87
2021/12/15 01:52:09;;;;;;;0.73;0.40;;;8.70;99.90;;;;;;4788044;30;20047;-86
2021/12/15 01:54:40;;;;;;;0.88;0.40;;;8.70;99.90;;;;;;4787926;30;20112;-86
2021/12/15 01:57:09;;;;;;;1.27;0.50;;;8.70;99.90;;;;;;4787747;30;20162;-86
2021/12/15 01:59:36;;;;;;;1.33;0.63;;;8.80;99.90;;;;;;4788249;30;20498;-86
2021/12/15 02:02:04;;;;;;;1.45;0.57;;;8.70;99.90;;;;;;4788386;30;20055;-87
2021/12/15 02:04:32;;;;;;;5.05;0.68;;;8.70;99.90;;;;;;4788735;29;20051;-87
2021/12/15 02:06:59;;;;;;;0.85;0.50;;;8.80;99.90;;;;;;4770554;30;20132;-87
2021/12/15 02:10:01;;;;;;;2.15;0.57;;;8.80;99.90;;;;;;4772184;30;20056;-86
2021/12/15 02:12:33;;;;;;;2.47;0.63;;;8.80;99.90;;;;;;4773588;30;20052;-86
2021/12/15 02:15:00;;;;;;;2.72;0.55;;;8.80;99.90;;;;;;4774184;30;20059;-87
2021/12/15 02:17:27;;;;;;;5.70;0.70;;;8.80;99.90;;;;;;4780976;30;20051;-87
2021/12/15 02:19:54;;;;;;;3.30;0.60;;;8.80;99.90;;;;;;4791594;30;20094;-87
2021/12/15 02:22:23;;;;;;;1.65;0.50;;;8.90;99.90;;;;;;4791669;30;20396;-86
2021/12/15 02:24:52;;;;;;;1.10;0.47;;;8.90;99.90;;;;;;4791833;30;20061;-86
2021/12/15 02:27:19;;;;;;;1.05;0.50;;;8.90;99.90;;;;;;4792065;30;20113;-87
2021/12/15 02:29:50;;;;;;;1.55;0.77;;;9.00;99.90;;;;;;4791497;30;20059;-87
2021/12/15 02:32:25;;;;;;;0.93;0.40;;;9.10;99.90;;;;;;4791387;30;20059;-87
2021/12/15 02:37:03;;;;;;;1.48;0.32;;;9.10;99.90;;;;;;4791477;30;20051;-87
2021/12/15 02:37:45;;;;;;;1.10;0.43;;;9.10;99.90;;;;;;4791691;30;20079;-87
2021/12/15 02:40:17;;;;;;;4.43;0.90;;;9.10;99.90;;;;;;4793084;30;20062;-87
2021/12/15 02:42:47;;;;;;;2.22;0.82;;;9.20;99.90;;;;;;4792263;30;20483;-86
2021/12/15 02:45:17;;;;;;;1.98;0.63;;;9.20;99.90;;;;;;4792235;30;20461;-87
2021/12/15 02:47:44;;;;;;;1.98;0.40;;;9.20;99.90;;;;;;4791206;30;20047;-87
2021/12/15 02:50:15;;;;;;;1.40;0.70;;;9.20;99.90;;;;;;4790858;30;20457;-87
2021/12/15 02:52:43;;;;;;;1.20;0.55;;;9.20;99.90;;;;;;4790970;30;20055;-87
2021/12/15 02:55:13;;;;;;;3.57;0.73;;;9.20;99.90;;;;;;4791164;30;20059;-87
2021/12/15 02:57:40;;;;;;;2.58;0.52;;;9.20;99.90;;;;;;4791097;30;20051;-86
2021/12/15 03:00:17;;;;;;;2.00;0.40;;;9.30;99.90;;;;;;4791154;30;20056;-86
2021/12/15 03:05:43;;;;;;;2.47;0.68;;;9.30;99.90;;;;;;4739823;30;20057;-86
2021/12/15 03:08:14;;;;;;;2.95;1.58;;;9.30;99.90;;;;;;4790972;30;20055;-86
2021/12/15 03:16:16;;;;;;;6.20;0.60;;;9.40;99.90;;;;;;4790660;30;20438;-86
2021/12/15 03:18:43;;;;;;;2.90;0.70;;;9.40;99.90;;;;;;4790606;30;20055;-86
2021/12/15 03:21:14;;;;;;;1.05;0.70;;;9.50;99.90;;;;;;4789167;29;20059;-86
2021/12/15 03:23:49;;;;;;;4.57;0.68;;;9.50;99.90;;;;;;4790574;30;20166;-87
2021/12/15 03:26:20;;;;;;;2.35;0.57;;;9.50;99.90;;;;;;4790215;30;20150;-86
2021/12/15 03:34:39;;;;;;;2.40;1.00;;;9.30;99.90;;;;;;4790223;30;20105;-87
2021/12/15 03:37:23;;;;;;;6.55;1.77;;;9.40;99.90;;;;;;4790085;30;20495;-87
2021/12/15 03:39:53;;;;;;;1.90;0.60;;;9.30;99.90;;;;;;4790125;30;20062;-86
2021/12/15 03:42:26;;;;;;;3.17;0.80;;;9.30;99.90;;;;;;4790131;30;20128;-87
2021/12/15 03:44:54;;;;;;;2.15;0.77;;;9.20;99.90;;;;;;4789729;30;20062;-87
2021/12/15 03:47:25;;;;;;;2.60;0.93;;;9.20;99.90;;;;;;4789541;30;20055;-87
2021/12/15 03:49:54;;;;;;;1.85;0.90;;;9.10;99.90;;;;;;4789930;30;20112;-87
2021/12/15 03:52:21;;;;;;;15.10;1.48;;;9.00;99.90;;;;;;4790003;30;20059;-87
2021/12/15 03:54:49;;;;;;;6.13;1.05;;;8.90;99.90;;;;;;4789681;30;20059;-87
2021/12/15 03:57:16;;;;;;;5.00;1.35;;;8.80;99.90;;;;;;4791824;29;20059;-87
2021/12/15 03:59:45;;;;;;;5.60;0.80;;;8.80;99.90;;;;;;4807398;29;20055;-86
2021/12/15 04:02:16;;;;;;;7.88;1.58;;;8.90;99.90;;;;;;4807392;29;20529;-87
2021/12/15 04:04:44;;;;;;;1.92;0.95;;;8.70;99.90;;;;;;4783876;30;20062;-87
2021/12/15 04:07:12;;;;;;;4.47;0.88;;;8.70;99.90;;;;;;4789104;30;20055;-87
2021/12/15 04:09:40;;;;;;;3.47;0.97;;;8.60;99.90;;;;;;4788910;30;20051;-87
2021/12/15 04:12:08;;;;;;;3.80;0.88;;;8.50;99.90;;;;;;4789327;30;20134;-87
2021/12/15 04:14:43;;;;;;;1.77;0.80;;;8.50;99.90;;;;;;4788992;30;20058;-86
2021/12/15 04:17:26;;;;;;;4.03;1.02;;;8.40;99.90;;;;;;4789215;30;20059;-86
2021/12/15 04:19:56;;;;;;;4.32;1.25;;;8.40;99.90;;;;;;4789553;30;20062;-86
2021/12/15 04:22:24;;;;;;;6.70;1.00;;;8.40;99.90;;;;;;4789813;30;20118;-86
2021/12/15 04:24:52;;;;;;;3.42;1.00;;;8.40;99.90;;;;;;4789513;30;20572;-86
2021/12/15 04:27:20;;;;;;;2.65;1.08;;;8.40;99.90;;;;;;4789583;30;20103;-86
2021/12/15 04:29:48;;;;;;;2.72;1.08;;;8.40;99.90;;;;;;4789216;29;20055;-86
2021/12/15 04:32:19;;;;;;;4.13;1.20;;;8.50;99.90;;;;;;4788928;29;20074;-86
2021/12/15 04:34:46;;;;;;;6.35;1.63;;;8.50;99.90;;;;;;4791140;30;20058;-86
2021/12/15 04:37:13;;;;;;;3.92;1.30;;;8.50;99.90;;;;;;4790853;30;20491;-86
2021/12/15 04:39:40;;;;;;;2.08;1.05;;;8.50;99.90;;;;;;4791313;30;20051;-87
2021/12/15 04:42:08;;;;;;;6.05;1.20;;;8.50;99.90;;;;;;4790432;30;20554;-86
2021/12/15 04:44:36;;;;;;;3.53;1.08;;;8.40;99.90;;;;;;4789337;30;20084;-86
2021/12/15 04:47:08;;;;;;;5.50;1.48;;;8.40;99.90;;;;;;4789348;30;20415;-86
2021/12/15 04:49:40;;;;;;;7.50;1.83;;;8.40;99.90;;;;;;4789034;30;20059;-86
2021/12/15 04:52:08;;;;;;;4.93;1.10;;;8.40;99.90;;;;;;4789574;30;20097;-86
2021/12/15 04:54:36;;;;;;;5.10;1.55;;;8.40;99.90;;;;;;4789097;30;20059;-86
2021/12/15 04:57:04;;;;;;;2.85;0.90;;;8.40;99.90;;;;;;4789319;30;20113;-86
2021/12/15 04:59:31;;;;;;;5.20;1.10;;;8.40;99.90;;;;;;4789526;30;20126;-86
2021/12/15 05:01:59;;;;;;;7.53;1.33;;;8.40;99.90;;;;;;4789381;30;20365;-86
2021/12/15 05:04:27;;;;;;;7.05;1.58;;;8.40;99.90;;;;;;4789282;30;20136;-86
2021/12/15 05:06:56;;;;;;;7.13;1.10;;;8.40;99.90;;;;;;4788905;30;20504;-86
2021/12/15 05:09:23;;;;;;;7.10;1.43;;;8.40;99.90;;;;;;4788821;30;20071;-86
2021/12/15 05:11:53;;;;;;;4.18;1.13;;;8.50;99.90;;;;;;4788857;30;20303;-86
2021/12/15 05:14:22;;;;;;;6.75;1.05;;;8.50;99.90;;;;;;4788987;30;20059;-86
2021/12/15 05:16:50;;;;;;;4.20;1.08;;;8.50;99.90;;;;;;4788997;30;20051;-86
2021/12/15 05:19:18;;;;;;;8.05;1.77;;;8.50;99.90;;;;;;4788886;30;20094;-86
2021/12/15 05:21:46;;;;;;;3.75;1.15;;;8.50;99.90;;;;;;4788812;30;20065;-86
2021/12/15 05:24:25;;;;;;;4.55;1.30;;;8.50;99.90;;;;;;4788705;30;20059;-86
2021/12/15 05:26:52;;;;;;;7.57;1.38;;;8.50;99.90;;;;;;4789139;30;20051;-86
2021/12/15 05:29:19;;;;;;;10.57;1.75;;;8.50;99.90;;;;;;4788610;30;20055;-86
2021/12/15 05:31:46;;;;;;;5.82;0.98;;;8.50;99.90;;;;;;4788852;30;20051;-86
2021/12/15 05:34:14;;;;;;;5.43;0.90;;;8.60;99.90;;;;;;4788689;30;20499;-86
2021/12/15 05:36:42;;;;;;;4.80;0.80;;;8.60;99.90;;;;;;4788548;30;20121;-86
2021/12/15 05:39:09;;;;;;;6.72;1.20;;;8.70;99.90;;;;;;4788669;30;20138;-86
2021/12/15 05:41:38;;;;;;;7.10;1.30;;;8.60;99.90;;;;;;4787549;30;20119;-86
2021/12/15 05:44:06;;;;;;;9.57;1.10;;;8.60;99.90;;;;;;4787434;30;20112;-86
2021/12/15 05:46:34;;;;;;;5.05;0.93;;;8.50;99.90;;;;;;4788737;30;20047;-86
2021/12/15 05:49:02;;;;;;;6.70;1.42;;;8.60;99.90;;;;;;4788369;30;20106;-86
2021/12/15 05:51:29;;;;;;;7.80;1.27;;;8.50;99.90;;;;;;4788522;30;20105;-86
2021/12/15 05:53:57;;;;;;;10.68;1.40;;;8.40;99.90;;;;;;4788435;30;20062;-86
2021/12/15 05:56:24;;;;;;;8.27;2.05;;;8.40;99.90;;;;;;4788847;30;20469;-86
2021/12/15 05:58:52;;;;;;;9.63;1.63;;;8.30;99.90;;;;;;4794248;29;20055;-86
2021/12/15 06:01:19;;;;;;;3.85;0.98;;;8.30;99.90;;;;;;4806202;29;20491;-86
2021/12/15 06:03:46;;;;;;;4.95;1.23;;;8.20;99.90;;;;;;4806332;29;20063;-87
2021/12/15 06:06:13;;;;;;;10.20;1.73;;;8.10;99.90;;;;;;4806363;29;20127;-86
2021/12/15 06:08:41;;;;;;;6.03;1.50;;;8.10;99.90;;;;;;4806065;29;20086;-86
2021/12/15 06:11:08;;;;;;;7.75;1.55;;;8.00;99.90;;;;;;4805677;29;20058;-87
2021/12/15 06:13:35;;;;;;;6.25;1.83;;;7.90;99.90;;;;;;4788187;29;20418;-86
2021/12/15 06:16:05;;;;;;;7.82;1.20;;;7.90;99.90;;;;;;4787720;30;20485;-86
2021/12/15 06:18:33;;;;;;;9.30;1.70;;;7.90;99.90;;;;;;4787824;30;20430;-86
2021/12/15 06:21:01;;;;;;;7.00;1.90;;;7.90;99.90;;;;;;4788048;30;20105;-86
2021/12/15 06:23:28;;;;;;;7.47;2.00;;;7.90;99.90;;;;;;4788136;30;20059;-86
2021/12/15 06:25:58;;;;;;;5.60;1.70;;;8.00;99.90;;;;;;4788257;30;20113;-86
2021/12/15 06:28:26;;;;;;;8.75;2.00;;;8.00;99.90;;;;;;4788101;30;20059;-86
2021/12/15 06:30:54;;;;;;;5.07;1.55;;;8.10;99.90;;;;;;4788364;30;20055;-86
2021/12/15 06:33:24;;;;;;;6.85;1.83;;;8.20;99.90;;;;;;4790288;30;20113;-86
2021/12/15 06:35:53;;;;;;;5.60;1.77;;;8.20;99.90;;;;;;4789725;30;20464;-86
2021/12/15 06:38:21;;;;;;;3.95;1.38;;;8.30;99.90;;;;;;4790139;30;20149;-86
2021/12/15 06:40:49;;;;;;;4.57;2.10;;;8.40;99.90;;;;;;4788458;30;20052;-86
2021/12/15 06:43:16;;;;;;;8.18;2.47;;;8.50;99.90;;;;;;4788023;30;20585;-86
2021/12/15 06:45:57;;;;;;;7.50;2.15;;;8.60;99.90;;;;;;4788078;30;20059;-86
2021/12/15 06:59:23;;;;;;;9.80;2.45;;;8.30;99.90;;;;;;4790977;30;20104;-86
2021/12/15 07:01:50;;;;;;;7.15;2.65;;;8.20;99.90;;;;;;4790914;30;20754;-86
2021/12/15 07:04:19;;;;;;;5.38;2.00;;;8.10;99.90;;;;;;4791330;30;20102;-86
2021/12/15 07:06:46;;;;;;;11.90;2.28;;;8.10;99.90;;;;;;4790987;30;20055;-86
2021/12/15 07:09:13;;;;;;;11.93;2.83;;;8.00;99.90;;;;;;4790881;30;20051;-86
2021/12/15 07:11:40;;;;;;;8.52;2.03;;;7.90;99.90;;;;;;4790895;30;20391;-86
2021/12/15 07:14:08;;;;;;;10.10;2.67;;;7.90;99.90;;;;;;4790984;30;20482;-86
2021/12/15 07:16:39;;;;;;;7.03;2.38;;;7.90;99.90;;;;;;4791449;30;20377;-86
2021/12/15 07:19:15;;;;;;;5.90;2.35;;;8.00;99.90;;;;;;4790902;30;20055;-86
2021/12/15 07:21:53;;;;;;;11.32;2.80;;;8.00;99.90;;;;;;4791048;30;20053;-86
2021/12/15 07:24:21;;;;;;;15.13;3.22;;;7.90;99.90;;;;;;4791105;30;20118;-86
2021/12/15 07:26:48;;;;;;;12.82;4.20;;;7.80;99.90;;;;;;4791222;30;20145;-87
2021/12/15 07:29:16;;;;;;;6.82;3.60;;;7.70;99.90;;;;;;4790695;29;20066;-87
2021/12/15 07:31:43;;;;;;;7.40;2.60;;;7.60;99.90;;;;;;4790900;30;20059;-86
2021/12/15 07:34:10;;;;;;;8.50;3.00;;;7.60;99.90;;;;;;4790674;30;20097;-86
2021/12/15 07:36:37;;;;;;;9.13;2.83;;;7.60;99.90;;;;;;4790869;30;20055;-87
2021/12/15 07:39:10;;;;;;;7.93;3.13;;;7.60;99.90;;;;;;4790281;30;20240;-86
2021/12/15 07:41:47;;;;;;;5.60;2.92;;;7.50;99.90;;;;;;4790989;30;20095;-86
2021/12/15 07:44:16;;;;;;;8.40;3.42;;;7.50;99.90;;;;;;4790168;30;20109;-87
2021/12/15 07:46:44;;;;;;;13.90;3.33;;;7.50;99.90;;;;;;4791618;30;20055;-87
2021/12/15 07:49:12;;;;;;;7.53;3.10;;;7.50;99.90;;;;;;4790694;30;20101;-86
2021/12/15 07:51:41;;;;;;;13.10;2.70;;;7.70;99.90;;;;;;4790417;30;20059;-86
2021/12/15 07:54:10;;;;;;;;;;;7.70;99.90;;;;;;4803671;29;20062;-87
2021/12/15 07:56:37;;;;;;;6.13;2.00;;;7.70;99.90;;;;;;4808402;29;19929;-86
2021/12/15 07:59:04;;;;;;;7.75;1.77;;;7.80;99.90;;;;;;4809120;29;20055;-86
2021/12/15 08:01:31;;;;;;;10.70;2.55;;;7.90;99.90;;;;;;4808214;29;20465;-86
2021/12/15 08:03:58;;;;;;;6.22;2.58;;;7.80;99.90;;;;;;4808119;29;20411;-86
2021/12/15 08:06:27;;;;;;;5.60;2.60;;;7.60;99.90;;;;;;4808105;29;20510;-86
2021/12/15 08:08:56;;;;;;;9.63;2.72;;;7.50;99.90;;;;;;4808788;29;20055;-86
2021/12/15 08:11:25;;;;;;;;;;;7.50;99.90;;;;;;4810937;29;20120;-86
2021/12/15 08:13:52;;;;;;;7.78;2.80;;;7.40;99.90;;;;;;4790097;30;19992;-86
2021/12/15 08:16:20;;;;;;;6.95;2.83;;;7.50;99.90;;;;;;4789909;30;20063;-86
2021/12/15 08:18:48;;;;;;;11.27;2.90;;;7.40;99.90;;;;;;4789052;30;20226;-87
2021/12/15 08:21:15;;;;;;;10.85;3.35;;;7.50;99.90;;;;;;4790243;30;20101;-86
2021/12/15 08:23:43;;;;;;;11.68;3.40;;;7.50;99.90;;;;;;4790985;30;20055;-87
2021/12/15 08:26:11;;;;;;;8.88;3.67;;;7.50;99.90;;;;;;4792319;30;20087;-86
2021/12/15 08:28:40;;;;;;;12.85;3.95;;;7.40;99.90;;;;;;4791165;29;20063;-86
2021/12/15 08:31:07;;;;;;;13.00;6.75;;;7.50;99.90;;;;;;4793200;30;20125;-87
2021/12/15 08:33:35;;;;;;;10.98;5.72;;;7.50;99.90;;;;;;4792061;30;20479;-86
2021/12/15 08:36:06;;;;;;;10.35;3.90;;;7.50;99.90;;;;;;4790468;30;20082;-86
2021/12/15 08:38:36;;;;;;;9.82;3.50;;;7.50;99.90;;;;;;4789548;30;20098;-87
2021/12/15 08:41:06;;;;;;;13.85;4.80;;;7.40;99.90;;;;;;4788756;30;20055;-87
2021/12/15 08:43:34;;;;;;;9.15;3.85;;;7.40;99.90;;;;;;4789537;30;20063;-86
2021/12/15 08:46:12;;;;;;;7.78;4.55;;;7.40;99.90;;;;;;4790177;30;20051;-88
2021/12/15 08:48:40;;;;;;;7.20;3.05;;;7.40;99.90;;;;;;4791987;30;20126;-86
2021/12/15 08:51:13;;;;;;;10.25;4.47;;;7.40;99.90;;;;;;4790634;30;20059;-89
2021/12/15 08:53:42;;;;;;;12.48;5.47;;;7.50;99.90;;;;;;4789165;30;20047;-85
2021/12/15 08:56:09;;;;;;;12.43;4.70;;;7.50;99.90;;;;;;4788258;30;20086;-85
2021/12/15 08:58:37;;;;;;;10.82;3.95;;;7.50;99.90;;;;;;4773499;29;20096;-87
2021/12/15 09:01:08;;;;;;;8.73;3.97;;;7.60;99.90;;;;;;4784755;30;20054;-87
2021/12/15 09:03:35;;;;;;;23.02;3.92;;;7.60;99.90;;;;;;4711182;30;21372;-86
2021/12/15 09:06:03;;;;;;;8.27;2.83;;;7.80;99.90;;;;;;4718000;30;20361;-86
2021/12/15 09:08:31;;;;;;;10.77;3.00;;;7.90;99.90;;;;;;4781243;30;20059;-87
2021/12/15 09:11:01;;;;;;;7.15;2.58;;;8.00;99.90;;;;;;4786042;30;20051;-87
2021/12/15 09:13:31;;;;;;;6.97;2.90;;;8.10;99.90;;;;;;4785569;30;20545;-87
2021/12/15 09:16:01;;;;;;;8.60;4.38;;;8.10;99.90;;;;;;4788495;30;20392;-88
2021/12/15 09:18:29;;;;;;;9.10;3.28;;;9.10;99.90;;;;;;4788279;29;20051;-87
2021/12/15 09:23:38;;;;;;;14.25;5.45;;;8.40;99.90;;;;;;4788222;30;20055;-88
2021/12/15 09:26:16;;;;;;;10.60;4.50;;;7.50;99.90;;;;;;4785638;30;20521;-87
2021/12/15 09:28:43;;;;;;;10.15;3.70;;;8.60;99.90;;;;;;4784507;29;20062;-88
2021/12/15 09:31:11;;;;;;;11.63;3.20;;;8.70;99.90;;;;;;4783204;30;20430;-88
2021/12/15 09:33:41;;;;;;;15.13;3.25;;;8.80;99.90;;;;;;4785153;29;20414;-88
2021/12/15 09:36:10;;;;;;;5.40;3.00;;;8.80;99.90;;;;;;4786527;30;20078;-89
2021/12/15 09:38:41;;;;;;;7.82;4.25;;;8.90;99.90;;;;;;4786594;30;20051;-88
2021/12/15 09:41:10;;;;;;;18.10;4.25;;;7.90;99.90;;;;;;4789283;30;20105;-89
2021/12/15 09:43:38;;;;;;;12.70;4.60;;;9.00;99.90;;;;;;4786413;30;20059;-89
2021/12/15 09:46:15;;;;;;;14.77;4.15;;;8.90;99.90;;;;;;4785220;29;20044;-88
2021/12/15 10:02:33;;;;;;;8.80;4.10;;;9.20;99.90;;;;;;4787434;29;20062;-90
2021/12/15 10:05:14;;;;;;;12.10;4.57;;;9.30;99.90;;;;;;4790354;29;20074;-89
2021/12/15 10:18:53;;;;;;;9.63;3.78;;;9.50;99.90;;;;;;4709603;29;20059;-86
2021/12/15 10:21:24;;;;;;;9.45;2.72;;;9.50;99.90;;;;;;4719242;29;20062;-89
2021/12/15 10:23:52;;;;;;;4.85;2.40;;;8.80;99.90;;;;;;4717548;29;20043;-87
2021/12/15 10:26:20;;;;;;;11.68;3.47;;;9.40;99.90;;;;;;4717060;29;20051;-87
2021/12/15 10:28:52;;;;;;;6.65;2.70;;;9.30;99.90;;;;;;4730588;29;20051;-88
2021/12/15 10:31:21;;;;;;;9.60;3.30;;;9.50;99.90;;;;;;4719651;29;20453;-89
2021/12/15 10:33:52;;;;;;;6.75;2.58;;;9.60;99.90;;;;;;4744131;29;20066;-89
2021/12/15 10:36:23;;;;;;;7.18;2.63;;;9.70;99.90;;;;;;4791460;29;20058;-89
2021/12/15 10:39:00;;;;;;;8.68;2.67;;;9.80;99.90;;;;;;4791072;29;20051;-90
2021/12/15 10:41:33;;;;;;;9.13;2.85;;;9.80;99.90;;;;;;4750327;29;20055;-89
2021/12/15 10:44:21;;;;;;;7.63;2.70;;;9.90;99.90;;;;;;4772609;30;20556;-89
2021/12/15 10:46:52;;;;;;;9.55;2.53;;;9.20;99.90;;;;;;4793601;29;20171;-88
2021/12/15 10:49:22;;;;;;;16.63;3.47;;;9.90;99.90;;;;;;4789009;29;20055;-89
2021/12/15 10:51:53;;;;;;;7.68;2.63;;;10.00;99.90;;;;;;4792992;29;20066;-88
2021/12/15 10:54:24;;;;;;;7.40;1.90;;;9.90;99.90;;;;;;4788435;29;20491;-88
2021/12/15 10:56:56;;;;;;;10.57;2.97;;;10.00;99.90;;;;;;4788091;29;20051;-89
2021/12/15 10:59:25;;;;;;;11.98;3.60;;;10.00;99.90;;;;;;4789978;30;20112;-89
2021/12/15 11:01:58;;;;;;;7.63;2.40;;;10.00;99.90;;;;;;4789267;30;20171;-88
2021/12/15 11:04:45;;;;;;;14.23;5.85;;;10.10;99.90;;;;;;4795506;29;20055;-87
2021/12/15 11:07:25;;;;;;;8.00;2.78;;;10.20;99.90;;;;;;4789018;29;20047;-88
2021/12/15 11:09:56;;;;;;;5.88;2.97;;;10.30;99.90;;;;;;4792383;29;20142;-89
2021/12/15 11:12:25;;;;;;;6.80;2.83;;;10.30;99.90;;;;;;4786636;30;20067;-89
2021/12/15 11:14:56;;;;;;;6.63;2.22;;;10.40;99.90;;;;;;4787670;29;20047;-89
2021/12/15 11:17:25;;;;;;;8.68;2.20;;;9.00;99.90;;;;;;4788736;30;20109;-89
2021/12/15 11:19:54;;;;;;;;;;;10.50;99.90;;;;;;4790204;30;20142;-89
2021/12/15 11:22:47;;;;;;;11.05;2.30;;;10.60;99.90;;;;;;4793472;30;19933;-89
2021/12/15 11:25:31;;;;;;;7.15;2.80;;;10.60;99.90;;;;;;4787906;30;20047;-90
2021/12/15 11:28:03;;;;;;;12.13;3.67;;;10.70;99.90;;;;;;4782109;29;20085;-88
2021/12/15 11:30:43;;;;;;;8.57;3.50;;;10.70;99.90;;;;;;4768025;30;20151;-88
2021/12/15 11:33:15;;;;;;;15.60;3.78;;;10.80;99.90;;;;;;4766448;30;20082;-89
2021/12/15 11:35:46;;;;;;;12.45;5.22;;;10.80;99.90;;;;;;4768442;30;20052;-88
2021/12/15 11:38:19;;;;;;;15.50;5.35;;;10.80;99.90;;;;;;4770783;30;20796;-90
2021/12/15 11:40:52;;;;;;;18.20;5.30;;;10.80;99.90;;;;;;4769520;30;20075;-89
2021/12/15 11:43:46;;;;;;;14.07;4.72;;;11.00;99.90;;;;;;4775526;30;20044;-90
2021/12/15 11:46:21;;;;;;;17.23;5.05;;;11.00;99.90;;;;;;4770590;30;20052;-89
2021/12/15 11:48:51;;;;;;;14.00;5.40;;;11.10;99.90;;;;;;4771131;30;20571;-88
2021/12/15 11:51:29;;;;;;;12.82;5.50;;;11.10;99.90;;;;;;4769507;30;20139;-89
2021/12/15 11:53:59;;;;;;;8.85;4.80;;;11.00;99.90;;;;;;4771381;30;20097;-89
2021/12/15 11:56:31;;;;;;;13.20;4.85;;;11.10;99.90;;;;;;4769271;30;20127;-87
2021/12/15 11:59:07;;;;;;;14.15;4.70;;;11.10;99.90;;;;;;4770067;30;20056;-86
2021/12/15 12:01:50;;;;;;;10.05;4.25;;;11.20;99.90;;;;;;4710666;30;20133;-86
2021/12/15 12:04:25;;;;;;;13.02;4.00;;;11.20;99.90;;;;;;4696350;30;20189;-85
2021/12/15 12:06:56;;;;;;;10.23;3.80;;;11.80;99.90;;;;;;4684827;30;20146;-87
2021/12/15 12:09:25;;;;;;;11.73;3.85;;;11.30;99.90;;;;;;4688025;30;20048;-87
2021/12/15 12:11:59;;;;;;;12.55;4.03;;;11.30;99.90;;;;;;4688480;30;20241;-84
2021/12/15 12:14:41;;;;;;;12.30;4.32;;;11.40;99.90;;;;;;4680989;30;20784;-86
2021/12/15 12:17:12;;;;;;;12.05;3.45;;;11.40;99.90;;;;;;4684678;30;20206;-86
2021/12/15 12:19:45;;;;;;;10.50;2.92;;;11.40;99.90;;;;;;4690785;30;20062;-85
2021/12/15 12:22:14;;;;;;;11.05;3.15;;;11.50;99.90;;;;;;4693789;30;21280;-87
2021/12/15 12:24:44;;;;;;;8.95;2.78;;;11.50;99.90;;;;;;4699296;30;20059;-88
2021/12/15 12:27:15;;;;;;;7.75;2.65;;;11.60;99.90;;;;;;4702670;30;20043;-86
2021/12/15 12:29:44;;;;;;;13.95;3.00;;;11.60;99.90;;;;;;4709265;30;20971;-88
2021/12/15 12:32:11;;;;;;;9.90;2.42;;;11.70;99.90;;;;;;4712572;29;20161;-88
2021/12/15 12:34:45;;;;;;;5.78;1.88;;;11.80;99.90;;;;;;4715361;29;20111;-87
2021/12/15 12:37:14;;;;;;;10.50;2.13;;;11.90;99.90;;;;;;4734918;29;20410;-91
2021/12/15 12:39:45;;;;;;;10.07;2.10;;;12.00;99.90;;;;;;4791139;29;20142;-90
2021/12/15 12:42:28;;;;;;;7.90;2.22;;;12.10;99.90;;;;;;4779819;30;20055;-87
2021/12/15 12:45:11;;;;;;;10.50;2.10;;;12.20;99.90;;;;;;4788620;29;20051;-89
2021/12/15 12:47:45;;;;;;;10.50;2.00;;;12.20;99.90;;;;;;4790342;30;20134;-88
2021/12/15 12:50:41;;;;;;;4.88;2.15;;;12.30;99.90;;;;;;4798264;29;20387;-87
2021/12/15 12:59:27;;;;;;;6.22;2.08;;;12.10;99.90;;;;;;4791705;30;20131;-87
2021/12/15 13:01:57;;;;;;;15.52;3.42;;;12.10;99.90;;;;;;4792026;29;20091;-87
2021/12/15 13:04:37;;;;;;;11.57;3.15;;;12.20;99.90;;;;;;4792089;29;20062;-87
2021/12/15 13:07:05;;;;;;;7.15;2.15;;;12.10;99.90;;;;;;4784237;29;20075;-87
2021/12/15 13:09:55;;;;;;;9.23;2.05;;;12.20;99.90;;;;;;4790306;29;20055;-87
2021/12/15 13:15:12;;;;;;;9.07;2.42;;;12.30;99.90;;;;;;4797462;29;20138;-90
2021/12/15 13:17:57;;;;;;;8.05;2.03;;;12.30;99.90;;;;;;4785829;30;20483;-87
2021/12/15 13:20:27;;;;;;;8.82;1.98;;;12.30;99.90;;;;;;4785869;29;20142;-90
2021/12/15 13:23:07;;;;;;;;;;;12.30;99.90;;;;;;4754172;30;20055;-87
2021/12/15 13:28:44;;;;;;;8.32;1.63;;;12.30;99.90;;;;;;4729349;29;21034;-88
2021/12/15 13:31:15;;;;;;;5.43;1.35;;;12.20;99.90;;;;;;4733551;29;20127;-88
2021/12/15 13:34:18;;;;;;;;;;;;;;;;;;;;;
2021/12/15 13:36:45;;;;;;;6.53;1.50;;;12.10;99.90;;;;;;4728306;30;20078;-89
2021/12/15 13:39:15;;;;;;;6.55;1.55;;;12.20;99.90;;;;;;4739289;29;20134;-87
2021/12/15 13:41:49;;;;;;;7.00;2.10;;;12.10;99.90;;;;;;4738126;29;20048;-88
2021/12/15 13:44:29;;;;;;;6.05;1.73;;;12.10;99.90;;;;;;4726627;29;20128;-87
2021/12/15 13:47:01;;;;;;;9.02;2.10;;;12.20;99.90;;;;;;4725051;29;20055;-87
2021/12/15 13:49:31;;;;;;;14.52;1.95;;;12.20;99.90;;;;;;4724130;30;20047;-88
2021/12/15 13:52:26;;;;;;;8.95;2.08;;;12.20;99.90;;;;;;4732235;30;20047;-87
2021/12/15 13:55:02;;;;;;;5.07;1.33;;;12.30;99.90;;;;;;4713415;30;20754;-86
2021/12/15 13:57:33;;;;;;;9.80;2.13;;;12.40;99.90;;;;;;4730813;29;20054;-88
2021/12/15 14:00:21;;;;;;;6.20;1.50;;;12.30;99.90;;;;;;4726540;29;20055;-88
2021/12/15 14:02:59;;;;;;;10.40;2.28;;;12.20;99.90;;;;;;4736233;29;20115;-88
2021/12/15 14:05:30;;;;;;;5.10;1.67;;;12.30;99.90;;;;;;4738109;29;20067;-86
2021/12/15 14:08:03;;;;;;;9.85;2.03;;;12.30;99.90;;;;;;4724556;29;20740;-87
2021/12/15 14:11:00;;;;;;;5.93;1.63;;;12.30;99.90;;;;;;4722144;29;20047;-87
2021/12/15 14:14:02;;;;;;;12.25;2.47;;;12.20;99.90;;;;;;4740009;29;20054;-86
2021/12/15 14:16:53;;;;;;;7.63;1.52;;;12.30;99.90;;;;;;4738027;29;20047;-90
2021/12/15 14:19:28;;;;;;;8.10;2.10;;;13.20;99.90;;;;;;4753190;30;20069;-91
2021/12/15 14:22:21;;;;;;;;;;;;;;;;;;;;;
2021/12/15 14:24:54;;;;;;;4.93;1.98;;;12.20;99.90;;;;;;4739722;30;20280;-90
2021/12/15 14:28:02;;;;;;;4.72;1.85;;;12.00;99.90;;;;;;4733125;30;21245;-90
2021/12/15 14:33:43;;;;;;;6.05;1.70;;;11.90;99.90;;;;;;4732769;29;20078;-89
2021/12/15 14:36:17;;;;;;;7.70;2.30;;;12.00;99.90;;;;;;4740476;29;20051;-91